Time,TemperatureF,DewpointF,PressureIn,WindDirection,WindDirectionDegrees,WindSpeedMPH,WindSpeedGustMPH,Humidity,HourlyPrecipIn,Conditions,Clouds,dailyrainin,SoftwareType,DateUTC
2013-12-08 00:01:00,25.4,15.3,29.87,NNE,22,0.0,8.0,65,0.00,,,0.00,Weather View 32 v70,2013-12-08 05:01:00,
2013-12-08 00:02:00,25.4,14.9,29.87,NNE,22,0.0,8.0,64,0.00,,,0.00,Weather View 32 v70,2013-12-08 05:02:00,
2013-12-08 00:07:00,25.2,15.4,29.87,North,360,0.0,8.0,66,0.00,,,0.00,Weather View 32 v70,2013-12-08 05:07:00,
2013-12-08 00:12:00,25.0,15.2,29.87,SW,225,0.0,8.0,66,0.00,,,0.00,Weather View 32 v70,2013-12-08 05:12:00,
2013-12-08 00:17:00,24.9,15.5,29.87,SW,225,0.0,8.0,67,0.00,,,0.00,Weather View 32 v70,2013-12-08 05:17:00,
2013-12-08 00:22:00,24.7,16.0,29.87,ESE,112,0.0,8.0,69,0.00,,,0.00,Weather View 32 v70,2013-12-08 05:22:00,
2013-12-08 00:27:00,24.6,16.2,29.88,ESE,112,0.0,8.0,70,0.00,,,0.00,Weather View 32 v70,2013-12-08 05:27:00,
2013-12-08 00:32:00,24.4,17.0,29.87,North,360,0.0,8.0,73,0.00,,,0.00,Weather View 32 v70,2013-12-08 05:32:00,
2013-12-08 00:37:00,24.4,17.9,29.87,North,360,0.0,8.0,76,0.00,,,0.00,Weather View 32 v70,2013-12-08 05:37:00,
2013-12-08 00:42:00,24.5,18.6,29.87,NNW,337,0.0,8.0,78,0.00,,,0.00,Weather View 32 v70,2013-12-08 05:42:00,
2013-12-08 00:47:00,24.4,18.5,29.87,NNW,337,0.0,5.0,78,0.00,,,0.00,Weather View 32 v70,2013-12-08 05:47:00,
2013-12-08 00:52:00,24.4,18.8,29.87,NE,45,0.0,5.0,79,0.00,,,0.00,Weather View 32 v70,2013-12-08 05:52:00,
2013-12-08 00:57:00,24.3,18.7,29.87,NNW,337,0.0,5.0,79,0.00,,,0.00,Weather View 32 v70,2013-12-08 05:57:00,
2013-12-08 01:02:00,24.2,18.9,29.88,WNW,292,0.0,3.0,80,0.00,,,0.00,Weather View 32 v70,2013-12-08 06:02:00,
2013-12-08 01:07:00,24.4,19.1,29.88,NNW,337,0.0,6.0,80,0.00,,,0.00,Weather View 32 v70,2013-12-08 06:07:00,
2013-12-08 01:12:00,24.4,18.8,29.88,NNW,337,1.0,7.0,79,0.00,,,0.00,Weather View 32 v70,2013-12-08 06:12:00,
2013-12-08 01:17:00,24.4,18.8,29.88,NNW,337,1.0,7.0,79,0.00,,,0.00,Weather View 32 v70,2013-12-08 06:17:00,
2013-12-08 01:22:00,24.4,18.5,29.88,NNW,337,5.0,7.0,78,0.00,,,0.00,Weather View 32 v70,2013-12-08 06:22:00,
2013-12-08 01:27:00,24.4,17.3,29.88,NW,315,9.0,10.0,74,0.00,,,0.00,Weather View 32 v70,2013-12-08 06:27:00,
2013-12-08 01:32:00,24.5,17.7,29.89,NW,315,0.0,10.0,75,0.00,,,0.00,Weather View 32 v70,2013-12-08 06:32:00,
2013-12-08 01:37:00,24.6,16.9,29.89,NNW,337,1.0,10.0,72,0.00,,,0.00,Weather View 32 v70,2013-12-08 06:37:00,
2013-12-08 01:42:00,24.7,17.0,29.89,WNW,292,6.0,10.0,72,0.00,,,0.00,Weather View 32 v70,2013-12-08 06:42:00,
2013-12-08 01:47:00,24.7,16.6,29.89,NW,315,5.0,10.0,71,0.00,,,0.00,Weather View 32 v70,2013-12-08 06:47:00,
2013-12-08 01:52:00,24.7,16.3,29.89,North,360,1.0,10.0,70,0.00,,,0.00,Weather View 32 v70,2013-12-08 06:52:00,
2013-12-08 01:57:00,24.7,16.6,29.89,North,360,0.0,10.0,71,0.00,,,0.00,Weather View 32 v70,2013-12-08 06:57:00,
2013-12-08 02:02:00,24.7,16.6,29.89,NNW,337,1.0,10.0,71,0.00,,,0.00,Weather View 32 v70,2013-12-08 07:02:00,
2013-12-08 02:07:00,24.7,17.0,29.89,NNW,337,4.0,10.0,72,0.00,,,0.00,Weather View 32 v70,2013-12-08 07:07:00,
2013-12-08 02:12:00,24.6,16.9,29.89,NW,315,1.0,10.0,72,0.00,,,0.00,Weather View 32 v70,2013-12-08 07:12:00,
2013-12-08 02:17:00,24.6,16.5,29.89,NNW,337,2.0,10.0,71,0.00,,,0.00,Weather View 32 v70,2013-12-08 07:17:00,
2013-12-08 02:22:00,24.6,16.5,29.90,NW,315,6.0,10.0,71,0.00,,,0.00,Weather View 32 v70,2013-12-08 07:22:00,
2013-12-08 02:27:00,24.6,16.5,29.90,NNE,22,3.0,10.0,71,0.00,,,0.00,Weather View 32 v70,2013-12-08 07:27:00,
2013-12-08 02:32:00,24.6,16.5,29.90,NW,315,1.0,10.0,71,0.00,,,0.00,Weather View 32 v70,2013-12-08 07:32:00,
2013-12-08 02:37:00,24.5,16.4,29.90,WNW,292,4.0,10.0,71,0.00,,,0.00,Weather View 32 v70,2013-12-08 07:37:00,
2013-12-08 02:42:00,24.4,16.3,29.89,NNW,337,1.0,10.0,71,0.00,,,0.00,Weather View 32 v70,2013-12-08 07:42:00,
2013-12-08 02:47:00,24.4,16.3,29.89,WNW,292,0.0,10.0,71,0.00,,,0.00,Weather View 32 v70,2013-12-08 07:47:00,
2013-12-08 02:52:00,24.4,16.3,29.89,NNW,337,5.0,10.0,71,0.00,,,0.00,Weather View 32 v70,2013-12-08 07:52:00,
2013-12-08 02:57:00,24.3,16.6,29.89,NNW,337,1.0,10.0,72,0.00,,,0.00,Weather View 32 v70,2013-12-08 07:57:00,
2013-12-08 03:02:00,24.3,16.9,29.90,NW,315,0.0,10.0,73,0.00,,,0.00,Weather View 32 v70,2013-12-08 08:02:00,
2013-12-08 03:07:00,24.2,16.8,29.90,NNW,337,1.0,10.0,73,0.00,,,0.00,Weather View 32 v70,2013-12-08 08:07:00,
2013-12-08 03:12:00,24.2,16.8,29.90,North,360,0.0,10.0,73,0.00,,,0.00,Weather View 32 v70,2013-12-08 08:12:00,
2013-12-08 03:17:00,24.1,16.7,29.90,NNW,337,2.0,10.0,73,0.00,,,0.00,Weather View 32 v70,2013-12-08 08:17:00,
2013-12-08 03:22:00,24.0,16.6,29.90,ENE,67,0.0,10.0,73,0.00,,,0.00,Weather View 32 v70,2013-12-08 08:22:00,
2013-12-08 03:27:00,24.0,16.6,29.91,ENE,67,0.0,10.0,73,0.00,,,0.00,Weather View 32 v70,2013-12-08 08:27:00,
2013-12-08 03:32:00,23.9,16.5,29.91,NNE,22,0.0,8.0,73,0.00,,,0.00,Weather View 32 v70,2013-12-08 08:32:00,
2013-12-08 03:37:00,23.8,16.4,29.91,NNE,22,1.0,8.0,73,0.00,,,0.00,Weather View 32 v70,2013-12-08 08:37:00,
2013-12-08 03:42:00,23.7,16.3,29.91,NNE,22,0.0,8.0,73,0.00,,,0.00,Weather View 32 v70,2013-12-08 08:42:00,
2013-12-08 03:47:00,23.6,16.2,29.91,ENE,67,0.0,8.0,73,0.00,,,0.00,Weather View 32 v70,2013-12-08 08:47:00,
2013-12-08 03:52:00,23.6,16.5,29.91,NE,45,0.0,8.0,74,0.00,,,0.00,Weather View 32 v70,2013-12-08 08:52:00,
2013-12-08 03:57:00,23.4,16.3,29.91,NE,45,0.0,8.0,74,0.00,,,0.00,Weather View 32 v70,2013-12-08 08:57:00,
2013-12-08 04:02:00,23.4,16.6,29.91,NNE,22,0.0,8.0,75,0.00,,,0.00,Weather View 32 v70,2013-12-08 09:02:00,
2013-12-08 04:07:00,23.3,15.9,29.91,NNE,22,2.0,9.0,73,0.00,,,0.00,Weather View 32 v70,2013-12-08 09:07:00,
2013-12-08 04:12:00,23.3,15.9,29.91,NNE,22,0.0,9.0,73,0.00,,,0.00,Weather View 32 v70,2013-12-08 09:12:00,
2013-12-08 04:17:00,23.2,15.8,29.91,East,90,0.0,9.0,73,0.00,,,0.00,Weather View 32 v70,2013-12-08 09:17:00,
2013-12-08 04:22:00,23.1,15.7,29.91,NNE,22,0.0,9.0,73,0.00,,,0.00,Weather View 32 v70,2013-12-08 09:22:00,
2013-12-08 04:27:00,23.0,15.6,29.91,East,90,0.0,9.0,73,0.00,,,0.00,Weather View 32 v70,2013-12-08 09:27:00,
2013-12-08 04:32:00,22.9,15.5,29.91,NNE,22,4.0,9.0,73,0.00,,,0.00,Weather View 32 v70,2013-12-08 09:32:00,
2013-12-08 04:37:00,22.7,14.7,29.91,North,360,1.0,9.0,71,0.00,,,0.00,Weather View 32 v70,2013-12-08 09:37:00,
2013-12-08 04:42:00,22.6,14.9,29.91,NE,45,0.0,9.0,72,0.00,,,0.00,Weather View 32 v70,2013-12-08 09:42:00,
2013-12-08 04:47:00,22.4,15.1,29.91,NE,45,1.0,9.0,73,0.00,,,0.00,Weather View 32 v70,2013-12-08 09:47:00,
2013-12-08 04:52:00,22.4,15.1,29.92,NNE,22,1.0,9.0,73,0.00,,,0.00,Weather View 32 v70,2013-12-08 09:52:00,
2013-12-08 04:57:00,22.4,15.1,29.91,ENE,67,0.0,9.0,73,0.00,,,0.00,Weather View 32 v70,2013-12-08 09:57:00,
2013-12-08 05:02:00,22.3,15.0,29.91,North,360,0.0,9.0,73,0.00,,,0.00,Weather View 32 v70,2013-12-08 10:02:00,
2013-12-08 05:07:00,22.3,14.6,29.92,NE,45,0.0,9.0,72,0.00,,,0.00,Weather View 32 v70,2013-12-08 10:07:00,
2013-12-08 05:12:00,22.2,14.2,29.92,NNE,22,0.0,9.0,71,0.00,,,0.00,Weather View 32 v70,2013-12-08 10:12:00,
2013-12-08 05:17:00,22.3,14.6,29.92,NNE,22,0.0,6.0,72,0.00,,,0.00,Weather View 32 v70,2013-12-08 10:17:00,
2013-12-08 05:22:00,22.2,14.6,29.92,NE,45,0.0,6.0,72,0.00,,,0.00,Weather View 32 v70,2013-12-08 10:22:00,
2013-12-08 05:27:00,22.2,14.2,29.92,ENE,67,0.0,6.0,71,0.00,,,0.00,Weather View 32 v70,2013-12-08 10:27:00,
2013-12-08 05:32:00,22.2,14.6,29.93,NNE,22,0.0,6.0,72,0.00,,,0.00,Weather View 32 v70,2013-12-08 10:32:00,
2013-12-08 05:37:00,22.1,14.5,29.94,ENE,67,0.0,6.0,72,0.00,,,0.00,Weather View 32 v70,2013-12-08 10:37:00,
2013-12-08 05:42:00,22.1,14.8,29.94,East,90,0.0,6.0,73,0.00,,,0.00,Weather View 32 v70,2013-12-08 10:42:00,
2013-12-08 05:47:00,22.2,14.6,29.94,SSE,157,0.0,6.0,72,0.00,,,0.00,Weather View 32 v70,2013-12-08 10:47:00,
2013-12-08 05:52:00,22.2,14.2,29.94,ESE,112,0.0,6.0,71,0.00,,,0.00,Weather View 32 v70,2013-12-08 10:52:00,
2013-12-08 05:57:00,22.2,14.2,29.94,ESE,112,0.0,6.0,71,0.00,,,0.00,Weather View 32 v70,2013-12-08 10:57:00,
2013-12-08 06:02:00,22.2,14.9,29.94,ESE,112,0.0,6.0,73,0.00,,,0.00,Weather View 32 v70,2013-12-08 11:02:00,
2013-12-08 06:07:00,22.2,14.9,29.94,ESE,112,0.0,6.0,73,0.00,,,0.00,Weather View 32 v70,2013-12-08 11:07:00,
2013-12-08 06:12:00,22.2,14.6,29.94,ESE,112,0.0,6.0,72,0.00,,,0.00,Weather View 32 v70,2013-12-08 11:12:00,
2013-12-08 06:17:00,22.2,14.2,29.94,ESE,112,0.0,3.0,71,0.00,,,0.00,Weather View 32 v70,2013-12-08 11:17:00,
2013-12-08 06:22:00,22.1,14.1,29.94,SE,135,0.0,3.0,71,0.00,,,0.00,Weather View 32 v70,2013-12-08 11:22:00,
2013-12-08 06:27:00,22.1,14.1,29.95,ESE,112,0.0,3.0,71,0.00,,,0.00,Weather View 32 v70,2013-12-08 11:27:00,
2013-12-08 06:32:00,22.0,14.4,29.95,East,90,0.0,3.0,72,0.00,,,0.00,Weather View 32 v70,2013-12-08 11:32:00,
2013-12-08 06:37:00,22.0,14.7,29.96,East,90,0.0,3.0,73,0.00,,,0.00,Weather View 32 v70,2013-12-08 11:37:00,
2013-12-08 06:42:00,22.0,15.0,29.96,ESE,112,2.0,3.0,74,0.00,,,0.00,Weather View 32 v70,2013-12-08 11:42:00,
2013-12-08 06:47:00,22.0,14.4,29.96,SSE,157,3.0,4.0,72,0.00,,,0.00,Weather View 32 v70,2013-12-08 11:47:00,
2013-12-08 06:52:00,22.1,13.8,29.96,SE,135,0.0,4.0,70,0.00,,,0.00,Weather View 32 v70,2013-12-08 11:52:00,
2013-12-08 06:57:00,22.1,13.8,29.96,ESE,112,0.0,4.0,70,0.00,,,0.00,Weather View 32 v70,2013-12-08 11:57:00,
2013-12-08 07:02:00,22.0,14.4,29.96,SSE,157,0.0,4.0,72,0.00,,,0.00,Weather View 32 v70,2013-12-08 12:02:00,
2013-12-08 07:07:00,21.8,14.2,29.96,ESE,112,0.0,4.0,72,0.00,,,0.00,Weather View 32 v70,2013-12-08 12:07:00,
2013-12-08 07:12:00,21.8,14.8,29.96,ESE,112,0.0,4.0,74,0.00,,,0.00,Weather View 32 v70,2013-12-08 12:12:00,
2013-12-08 07:17:00,21.8,14.8,29.96,SE,135,0.0,4.0,74,0.00,,,0.00,Weather View 32 v70,2013-12-08 12:17:00,
2013-12-08 07:22:00,21.8,14.8,29.96,ESE,112,0.0,4.0,74,0.00,,,0.00,Weather View 32 v70,2013-12-08 12:22:00,
2013-12-08 07:27:00,21.8,14.8,29.96,ESE,112,0.0,4.0,74,0.00,,,0.00,Weather View 32 v70,2013-12-08 12:27:00,
2013-12-08 07:32:00,21.8,15.4,29.96,ESE,112,0.0,4.0,76,0.00,,,0.00,Weather View 32 v70,2013-12-08 12:32:00,
2013-12-08 07:37:00,21.9,14.9,29.96,ESE,112,0.0,4.0,74,0.00,,,0.00,Weather View 32 v70,2013-12-08 12:37:00,
2013-12-08 07:42:00,22.0,14.7,29.96,ESE,112,0.0,4.0,73,0.00,,,0.00,Weather View 32 v70,2013-12-08 12:42:00,
2013-12-08 07:47:00,22.1,14.8,29.96,ESE,112,0.0,4.0,73,0.00,,,0.00,Weather View 32 v70,2013-12-08 12:47:00,
2013-12-08 07:52:00,22.2,14.9,29.96,ESE,112,0.0,4.0,73,0.00,,,0.00,Weather View 32 v70,2013-12-08 12:52:00,
2013-12-08 07:57:00,22.2,14.9,29.96,ESE,112,0.0,4.0,73,0.00,,,0.00,Weather View 32 v70,2013-12-08 12:57:00,
2013-12-08 08:02:00,22.3,15.0,29.96,ESE,112,0.0,1.0,73,0.00,,,0.00,Weather View 32 v70,2013-12-08 13:02:00,
2013-12-08 08:08:00,22.2,14.9,29.96,ESE,112,0.0,1.0,73,0.00,,,0.00,Weather View 32 v70,2013-12-08 13:08:00,
2013-12-08 08:13:00,22.2,14.9,29.96,East,90,1.0,2.0,73,0.00,,,0.00,Weather View 32 v70,2013-12-08 13:13:00,
2013-12-08 08:18:00,22.2,14.9,29.95,East,90,0.0,2.0,73,0.00,,,0.00,Weather View 32 v70,2013-12-08 13:18:00,
2013-12-08 08:23:00,22.3,15.3,29.95,ESE,112,1.0,4.0,74,0.00,,,0.00,Weather View 32 v70,2013-12-08 13:23:00,
2013-12-08 08:28:00,22.7,15.4,29.95,ESE,112,0.0,4.0,73,0.00,,,0.00,Weather View 32 v70,2013-12-08 13:28:00,
2013-12-08 08:33:00,23.3,15.9,29.96,ESE,112,0.0,4.0,73,0.00,,,0.00,Weather View 32 v70,2013-12-08 13:33:00,
2013-12-08 08:38:00,24.0,16.3,29.96,SE,135,0.0,4.0,72,0.00,,,0.00,Weather View 32 v70,2013-12-08 13:38:00,
2013-12-08 08:43:00,24.1,15.7,29.96,ESE,112,0.0,4.0,70,0.00,,,0.00,Weather View 32 v70,2013-12-08 13:43:00,
2013-12-08 08:48:00,24.4,16.0,29.96,NNE,22,0.0,4.0,70,0.00,,,0.00,Weather View 32 v70,2013-12-08 13:48:00,
2013-12-08 08:53:00,25.1,16.4,29.96,NNE,22,0.0,4.0,69,0.00,,,0.00,Weather View 32 v70,2013-12-08 13:53:00,
2013-12-08 08:58:00,25.4,16.3,29.96,NE,45,0.0,4.0,68,0.00,,,0.00,Weather View 32 v70,2013-12-08 13:58:00,
2013-12-08 09:03:00,25.4,16.0,29.97,ESE,112,0.0,4.0,67,0.00,,,0.00,Weather View 32 v70,2013-12-08 14:03:00,
2013-12-08 09:08:00,25.3,15.9,29.97,East,90,0.0,4.0,67,0.00,,,0.00,Weather View 32 v70,2013-12-08 14:08:00,
2013-12-08 09:13:00,25.2,15.4,29.97,ENE,67,0.0,4.0,66,0.00,,,0.00,Weather View 32 v70,2013-12-08 14:13:00,
2013-12-08 09:18:00,25.0,15.6,29.98,East,90,0.0,4.0,67,0.00,,,0.00,Weather View 32 v70,2013-12-08 14:18:00,
2013-12-08 09:23:00,25.0,15.9,29.98,East,90,0.0,4.0,68,0.00,,,0.00,Weather View 32 v70,2013-12-08 14:23:00,
2013-12-08 09:28:00,25.2,16.5,29.98,NE,45,0.0,4.0,69,0.00,,,0.00,Weather View 32 v70,2013-12-08 14:28:00,
2013-12-08 09:33:00,25.4,16.6,29.98,NE,45,0.0,2.0,69,0.00,,,0.00,Weather View 32 v70,2013-12-08 14:33:00,
2013-12-08 09:38:00,25.9,17.1,29.98,NNE,22,0.0,2.0,69,0.00,,,0.00,Weather View 32 v70,2013-12-08 14:38:00,
2013-12-08 09:43:00,26.3,17.5,29.97,ESE,112,0.0,2.0,69,0.00,,,0.00,Weather View 32 v70,2013-12-08 14:43:00,
2013-12-08 09:48:00,26.4,17.3,29.97,NNE,22,0.0,2.0,68,0.00,,,0.00,Weather View 32 v70,2013-12-08 14:48:00,
2013-12-08 09:53:00,26.4,17.3,29.97,NNE,22,0.0,2.0,68,0.00,,,0.00,Weather View 32 v70,2013-12-08 14:53:00,
2013-12-08 09:58:00,26.7,17.9,29.97,NNE,22,0.0,2.0,69,0.00,,,0.00,Weather View 32 v70,2013-12-08 14:58:00,
2013-12-08 10:03:00,26.9,17.4,29.97,NNE,22,0.0,1.0,67,0.00,,,0.00,Weather View 32 v70,2013-12-08 15:03:00,
2013-12-08 10:08:00,26.8,17.0,29.97,NNW,337,3.0,3.0,66,0.00,,,0.00,Weather View 32 v70,2013-12-08 15:08:00,
2013-12-08 10:13:00,27.1,17.6,29.98,NNE,22,0.0,4.0,67,0.00,,,0.00,Weather View 32 v70,2013-12-08 15:13:00,
2013-12-08 10:18:00,27.3,17.8,29.98,NNE,22,0.0,4.0,67,0.00,,,0.00,Weather View 32 v70,2013-12-08 15:18:00,
2013-12-08 10:23:00,27.2,17.0,29.98,NNW,337,0.0,4.0,65,0.00,,,0.00,Weather View 32 v70,2013-12-08 15:23:00,
2013-12-08 10:28:00,27.1,16.9,29.99,NNE,22,0.0,4.0,65,0.00,,,0.00,Weather View 32 v70,2013-12-08 15:28:00,
2013-12-08 10:33:00,27.4,17.9,29.98,East,90,0.0,4.0,67,0.00,,,0.00,Weather View 32 v70,2013-12-08 15:33:00,
2013-12-08 10:39:00,27.4,17.2,29.98,ENE,67,0.0,4.0,65,0.00,,,0.00,Weather View 32 v70,2013-12-08 15:39:00,
2013-12-08 10:43:00,27.4,17.5,29.97,NNE,22,0.0,4.0,66,0.00,,,0.00,Weather View 32 v70,2013-12-08 15:43:00,
2013-12-08 10:48:00,27.4,17.2,29.97,NW,315,0.0,4.0,65,0.00,,,0.00,Weather View 32 v70,2013-12-08 15:48:00,
2013-12-08 10:54:00,27.4,17.2,29.97,SE,135,2.0,4.0,65,0.00,,,0.00,Weather View 32 v70,2013-12-08 15:54:00,
2013-12-08 10:59:00,27.1,16.9,29.97,SE,135,0.0,4.0,65,0.00,,,0.00,Weather View 32 v70,2013-12-08 15:59:00,
2013-12-08 11:04:00,27.2,17.3,29.97,NE,45,1.0,4.0,66,0.00,,,0.00,Weather View 32 v70,2013-12-08 16:04:00,
2013-12-08 11:09:00,27.2,17.0,29.96,NNE,22,1.0,5.0,65,0.00,,,0.00,Weather View 32 v70,2013-12-08 16:09:00,
2013-12-08 11:14:00,27.0,17.2,29.95,East,90,0.0,5.0,66,0.00,,,0.00,Weather View 32 v70,2013-12-08 16:14:00,
2013-12-08 11:19:00,26.9,17.1,29.95,East,90,0.0,5.0,66,0.00,,,0.00,Weather View 32 v70,2013-12-08 16:19:00,
2013-12-08 11:24:00,27.1,16.9,29.95,East,90,1.0,5.0,65,0.00,,,0.00,Weather View 32 v70,2013-12-08 16:24:00,
2013-12-08 11:29:00,27.0,16.8,29.94,NE,45,0.0,5.0,65,0.00,,,0.00,Weather View 32 v70,2013-12-08 16:29:00,
2013-12-08 11:34:00,27.2,17.0,29.94,ENE,67,0.0,5.0,65,0.00,,,0.00,Weather View 32 v70,2013-12-08 16:34:00,
2013-12-08 11:39:00,27.4,16.8,29.94,WSW,247,0.0,5.0,64,0.00,,,0.00,Weather View 32 v70,2013-12-08 16:39:00,
2013-12-08 11:44:00,27.7,17.5,29.94,NNW,337,1.0,5.0,65,0.00,,,0.00,Weather View 32 v70,2013-12-08 16:44:00,
2013-12-08 11:49:00,27.9,17.3,29.93,ESE,112,0.0,5.0,64,0.00,,,0.00,Weather View 32 v70,2013-12-08 16:49:00,
2013-12-08 11:54:00,27.7,16.7,29.93,NNE,22,0.0,5.0,63,0.00,,,0.00,Weather View 32 v70,2013-12-08 16:54:00,
2013-12-08 11:59:00,27.7,17.5,29.94,South,180,0.0,5.0,65,0.00,,,0.00,Weather View 32 v70,2013-12-08 16:59:00,
2013-12-08 12:04:00,27.6,19.1,29.94,East,90,0.0,5.0,70,0.00,,,0.00,Weather View 32 v70,2013-12-08 17:04:00,
2013-12-08 12:09:00,27.4,17.9,29.94,ENE,67,0.0,5.0,67,0.00,,,0.00,Weather View 32 v70,2013-12-08 17:09:00,
2013-12-08 12:14:00,27.4,17.2,29.95,ENE,67,0.0,5.0,65,0.00,,,0.00,Weather View 32 v70,2013-12-08 17:14:00,
2013-12-08 12:19:00,27.3,16.4,29.95,NNE,22,0.0,5.0,63,0.00,,,0.00,Weather View 32 v70,2013-12-08 17:19:00,
2013-12-08 12:24:00,27.6,17.4,29.94,NNE,22,0.0,5.0,65,0.00,,,0.00,Weather View 32 v70,2013-12-08 17:24:00,
2013-12-08 12:29:00,27.4,16.5,29.95,NW,315,0.0,5.0,63,0.00,,,0.00,Weather View 32 v70,2013-12-08 17:29:00,
2013-12-08 12:34:00,27.4,16.1,29.95,West,270,0.0,5.0,62,0.00,,,0.00,Weather View 32 v70,2013-12-08 17:34:00,
2013-12-08 12:39:00,27.4,16.5,29.95,West,270,0.0,5.0,63,0.00,,,0.00,Weather View 32 v70,2013-12-08 17:39:00,
2013-12-08 12:44:00,27.4,16.5,29.94,WNW,292,1.0,5.0,63,0.00,,,0.00,Weather View 32 v70,2013-12-08 17:44:00,
2013-12-08 12:49:00,27.3,16.4,29.95,WNW,292,0.0,5.0,63,0.00,,,0.00,Weather View 32 v70,2013-12-08 17:49:00,
2013-12-08 12:54:00,27.1,16.2,29.94,WNW,292,0.0,5.0,63,0.00,,,0.00,Weather View 32 v70,2013-12-08 17:54:00,
2013-12-08 12:59:00,26.9,16.0,29.94,WSW,247,0.0,5.0,63,0.00,,,0.00,Weather View 32 v70,2013-12-08 17:59:00,
2013-12-08 13:04:00,27.0,16.1,29.94,NNW,337,0.0,3.0,63,0.00,,,0.00,Weather View 32 v70,2013-12-08 18:04:00,
2013-12-08 13:09:00,27.4,16.5,29.94,NNW,337,0.0,3.0,63,0.00,,,0.00,Weather View 32 v70,2013-12-08 18:09:00,
2013-12-08 13:14:00,27.8,16.1,29.94,West,270,0.0,5.0,61,0.00,,,0.00,Weather View 32 v70,2013-12-08 18:14:00,
2013-12-08 13:19:00,28.1,16.4,29.93,WNW,292,0.0,5.0,61,0.00,,,0.00,Weather View 32 v70,2013-12-08 18:19:00,
2013-12-08 13:24:00,29.0,16.8,29.93,WNW,292,0.0,5.0,60,0.00,,,0.00,Weather View 32 v70,2013-12-08 18:24:00,
2013-12-08 13:29:00,29.2,16.6,29.93,West,270,0.0,5.0,59,0.00,,,0.00,Weather View 32 v70,2013-12-08 18:29:00,
2013-12-08 13:35:00,30.1,17.9,29.93,NNE,22,0.0,5.0,60,0.00,,,0.00,Weather View 32 v70,2013-12-08 18:35:00,
2013-12-08 13:40:00,29.6,16.6,29.92,NNE,22,1.0,5.0,58,0.00,,,0.00,Weather View 32 v70,2013-12-08 18:40:00,
2013-12-08 13:45:00,28.9,16.0,29.93,East,90,2.0,5.0,58,0.00,,,0.00,Weather View 32 v70,2013-12-08 18:45:00,
2013-12-08 13:50:00,28.4,15.9,29.93,NNE,22,1.0,5.0,59,0.00,,,0.00,Weather View 32 v70,2013-12-08 18:50:00,
2013-12-08 13:55:00,28.4,16.3,29.92,North,360,2.0,5.0,60,0.00,,,0.00,Weather View 32 v70,2013-12-08 18:55:00,
2013-12-08 14:00:00,28.4,16.3,29.92,NNW,337,0.0,5.0,60,0.00,,,0.00,Weather View 32 v70,2013-12-08 19:00:00,
2013-12-08 14:05:00,28.6,16.5,29.92,SSE,157,0.0,5.0,60,0.00,,,0.00,Weather View 32 v70,2013-12-08 19:05:00,
2013-12-08 14:10:00,28.5,17.1,29.93,SSW,202,0.0,5.0,62,0.00,,,0.00,Weather View 32 v70,2013-12-08 19:10:00,
2013-12-08 14:15:00,28.8,17.4,29.93,SSW,202,0.0,5.0,62,0.00,,,0.00,Weather View 32 v70,2013-12-08 19:15:00,
2013-12-08 14:20:00,28.8,16.7,29.93,North,360,0.0,5.0,60,0.00,,,0.00,Weather View 32 v70,2013-12-08 19:20:00,
2013-12-08 14:25:00,28.8,16.7,29.93,North,360,0.0,5.0,60,0.00,,,0.00,Weather View 32 v70,2013-12-08 19:25:00,
2013-12-08 14:30:00,28.7,16.6,29.93,NW,315,0.0,5.0,60,0.00,,,0.00,Weather View 32 v70,2013-12-08 19:30:00,
2013-12-08 14:35:00,28.5,16.8,29.93,NW,315,0.0,5.0,61,0.00,,,0.00,Weather View 32 v70,2013-12-08 19:35:00,
2013-12-08 14:40:00,28.5,17.1,29.93,NW,315,0.0,5.0,62,0.00,,,0.00,Weather View 32 v70,2013-12-08 19:40:00,
2013-12-08 14:45:00,28.4,16.7,29.93,NW,315,0.0,5.0,61,0.00,,,0.00,Weather View 32 v70,2013-12-08 19:45:00,
2013-12-08 14:50:00,28.3,16.9,29.93,South,180,0.0,4.0,62,0.00,,,0.00,Weather View 32 v70,2013-12-08 19:50:00,
2013-12-08 14:55:00,28.0,16.7,29.92,East,90,0.0,4.0,62,0.00,,,0.00,Weather View 32 v70,2013-12-08 19:55:00,
2013-12-08 15:00:00,27.9,16.9,29.93,East,90,6.0,6.0,63,0.00,,,0.00,Weather View 32 v70,2013-12-08 20:00:00,
2013-12-08 15:05:00,27.4,16.5,29.93,ESE,112,1.0,7.0,63,0.00,,,0.00,Weather View 32 v70,2013-12-08 20:05:00,
2013-12-08 15:10:00,27.3,16.4,29.93,ESE,112,1.0,7.0,63,0.00,,,0.00,Weather View 32 v70,2013-12-08 20:10:00,
2013-12-08 15:15:00,27.0,16.4,29.93,ESE,112,0.0,7.0,64,0.00,,,0.00,Weather View 32 v70,2013-12-08 20:15:00,
2013-12-08 15:20:00,26.8,16.6,29.93,East,90,2.0,7.0,65,0.00,,,0.00,Weather View 32 v70,2013-12-08 20:20:00,
2013-12-08 15:25:00,26.7,16.5,29.93,East,90,1.0,7.0,65,0.00,,,0.00,Weather View 32 v70,2013-12-08 20:25:00,
2013-12-08 15:30:00,26.4,16.6,29.94,East,90,2.0,7.0,66,0.00,,,0.00,Weather View 32 v70,2013-12-08 20:30:00,
2013-12-08 15:35:00,26.4,16.6,29.94,East,90,2.0,7.0,66,0.00,,,0.00,Weather View 32 v70,2013-12-08 20:35:00,
2013-12-08 15:40:00,26.4,16.6,29.93,SE,135,0.0,7.0,66,0.00,,,0.00,Weather View 32 v70,2013-12-08 20:40:00,
2013-12-08 15:45:00,26.4,16.2,29.94,ESE,112,0.0,7.0,65,0.00,,,0.00,Weather View 32 v70,2013-12-08 20:45:00,
2013-12-08 15:50:00,26.3,16.5,29.94,East,90,0.0,7.0,66,0.00,,,0.00,Weather View 32 v70,2013-12-08 20:50:00,
2013-12-08 15:55:00,26.2,16.4,29.94,East,90,1.0,7.0,66,0.00,,,0.00,Weather View 32 v70,2013-12-08 20:55:00,
2013-12-08 16:00:00,26.1,16.3,29.94,ESE,112,0.0,7.0,66,0.00,,,0.00,Weather View 32 v70,2013-12-08 21:00:00,
2013-12-08 16:05:00,25.9,16.1,29.94,ESE,112,0.0,7.0,66,0.00,,,0.00,Weather View 32 v70,2013-12-08 21:05:00,
2013-12-08 16:10:00,25.7,16.3,29.93,ESE,112,0.0,7.0,67,0.00,,,0.00,Weather View 32 v70,2013-12-08 21:10:00,
2013-12-08 16:15:00,25.4,16.3,29.94,ESE,112,0.0,7.0,68,0.00,,,0.00,Weather View 32 v70,2013-12-08 21:15:00,
2013-12-08 16:20:00,25.1,16.4,29.94,ESE,112,0.0,6.0,69,0.00,,,0.00,Weather View 32 v70,2013-12-08 21:20:00,
2013-12-08 16:25:00,24.9,16.8,29.94,ESE,112,0.0,6.0,71,0.00,,,0.00,Weather View 32 v70,2013-12-08 21:25:00,
2013-12-08 16:30:00,24.4,17.0,29.94,ESE,112,0.0,6.0,73,0.00,,,0.00,Weather View 32 v70,2013-12-08 21:30:00,
2013-12-08 16:35:00,24.0,17.2,29.94,SE,135,1.0,6.0,75,0.00,,,0.00,Weather View 32 v70,2013-12-08 21:35:00,
2013-12-08 16:40:00,23.6,17.5,29.94,ESE,112,0.0,6.0,77,0.00,,,0.00,Weather View 32 v70,2013-12-08 21:40:00,
2013-12-08 16:45:00,23.4,17.6,29.94,ESE,112,0.0,6.0,78,0.00,,,0.00,Weather View 32 v70,2013-12-08 21:45:00,
2013-12-08 16:50:00,23.3,17.5,29.93,SE,135,0.0,6.0,78,0.00,,,0.00,Weather View 32 v70,2013-12-08 21:50:00,
2013-12-08 16:55:00,23.4,17.9,29.93,SE,135,1.0,6.0,79,0.00,,,0.00,Weather View 32 v70,2013-12-08 21:55:00,
2013-12-08 17:00:00,23.6,18.0,29.93,ESE,112,2.0,6.0,79,0.00,,,0.00,Weather View 32 v70,2013-12-08 22:00:00,
2013-12-08 17:05:00,23.9,18.0,29.93,SE,135,0.0,3.0,78,0.00,,,0.00,Weather View 32 v70,2013-12-08 22:05:00,
2013-12-08 17:10:00,24.1,18.2,29.93,SSE,157,0.0,3.0,78,0.00,,,0.00,Weather View 32 v70,2013-12-08 22:10:00,
2013-12-08 17:15:00,24.3,17.8,29.93,SE,135,1.0,3.0,76,0.00,,,0.00,Weather View 32 v70,2013-12-08 22:15:00,
2013-12-08 17:20:00,24.5,18.0,29.93,SSE,157,0.0,4.0,76,0.00,,,0.00,Weather View 32 v70,2013-12-08 22:20:00,
2013-12-08 17:25:00,24.6,18.1,29.94,ESE,112,5.0,5.0,76,0.00,,,0.00,Weather View 32 v70,2013-12-08 22:25:00,
2013-12-08 17:30:00,24.7,17.9,29.94,SSE,157,0.0,5.0,75,0.00,,,0.00,Weather View 32 v70,2013-12-08 22:30:00,
2013-12-08 17:35:00,24.8,18.0,29.94,SE,135,0.0,5.0,75,0.00,,,0.00,Weather View 32 v70,2013-12-08 22:35:00,
2013-12-08 17:40:00,24.8,17.7,29.93,SE,135,3.0,5.0,74,0.00,,,0.00,Weather View 32 v70,2013-12-08 22:40:00,
2013-12-08 17:45:00,24.9,17.5,29.93,SE,135,0.0,5.0,73,0.00,,,0.00,Weather View 32 v70,2013-12-08 22:45:00,
2013-12-08 17:50:00,25.0,17.2,29.92,SE,135,0.0,5.0,72,0.00,,,0.00,Weather View 32 v70,2013-12-08 22:50:00,
2013-12-08 17:55:00,25.0,17.6,29.92,SE,135,1.0,5.0,73,0.00,,,0.00,Weather View 32 v70,2013-12-08 22:55:00,
2013-12-08 18:00:00,24.9,17.8,29.92,SSE,157,0.0,5.0,74,0.00,,,0.00,Weather View 32 v70,2013-12-08 23:00:00,
2013-12-08 18:05:00,24.9,17.8,29.92,SE,135,0.0,5.0,74,0.00,,,0.00,Weather View 32 v70,2013-12-08 23:05:00,
2013-12-08 18:10:00,24.9,18.1,29.92,ESE,112,0.0,5.0,75,0.00,,,0.00,Weather View 32 v70,2013-12-08 23:10:00,
2013-12-08 18:15:00,24.8,18.3,29.92,SE,135,0.0,5.0,76,0.00,,,0.00,Weather View 32 v70,2013-12-08 23:15:00,
2013-12-08 18:20:00,24.7,18.2,29.92,SE,135,0.0,5.0,76,0.00,,,0.00,Weather View 32 v70,2013-12-08 23:20:00,
2013-12-08 18:25:00,24.7,18.2,29.92,SE,135,0.0,5.0,76,0.00,,,0.00,Weather View 32 v70,2013-12-08 23:25:00,
2013-12-08 18:30:00,24.7,18.2,29.92,SE,135,0.0,4.0,76,0.00,,,0.00,Weather View 32 v70,2013-12-08 23:30:00,
2013-12-08 18:35:00,24.7,17.9,29.93,SE,135,0.0,4.0,75,0.00,,,0.00,Weather View 32 v70,2013-12-08 23:35:00,
2013-12-08 18:40:00,24.6,18.1,29.92,SSE,157,1.0,4.0,76,0.00,,,0.00,Weather View 32 v70,2013-12-08 23:40:00,
2013-12-08 18:45:00,24.6,18.1,29.92,SSE,157,0.0,4.0,76,0.00,,,0.00,Weather View 32 v70,2013-12-08 23:45:00,
2013-12-08 18:50:00,24.7,17.9,29.93,SSE,157,0.0,4.0,75,0.00,,,0.00,Weather View 32 v70,2013-12-08 23:50:00,
2013-12-08 18:55:00,24.9,17.5,29.92,SE,135,1.0,4.0,73,0.00,,,0.00,Weather View 32 v70,2013-12-08 23:55:00,
2013-12-08 19:00:00,25.1,17.0,29.92,SE,135,3.0,4.0,71,0.00,,,0.00,Weather View 32 v70,2013-12-09 00:00:00,
2013-12-08 19:05:00,25.2,16.8,29.92,SSE,157,1.0,5.0,70,0.00,,,0.00,Weather View 32 v70,2013-12-09 00:05:00,
2013-12-08 19:10:00,25.2,17.1,29.92,SSE,157,1.0,6.0,71,0.00,,,0.00,Weather View 32 v70,2013-12-09 00:10:00,
2013-12-08 19:15:00,25.3,16.9,29.92,SE,135,1.0,6.0,70,0.00,,,0.00,Weather View 32 v70,2013-12-09 00:15:00,
2013-12-08 19:20:00,25.3,17.2,29.92,SE,135,1.0,6.0,71,0.00,,,0.00,Weather View 32 v70,2013-12-09 00:20:00,
2013-12-08 19:25:00,25.3,17.2,29.92,SE,135,1.0,6.0,71,0.00,,,0.00,Weather View 32 v70,2013-12-09 00:25:00,
2013-12-08 19:30:00,25.3,17.2,29.91,SE,135,1.0,6.0,71,0.00,,,0.00,Weather View 32 v70,2013-12-09 00:30:00,
2013-12-08 19:35:00,25.3,17.2,29.91,SSE,157,0.0,6.0,71,0.00,,,0.00,Weather View 32 v70,2013-12-09 00:35:00,
2013-12-08 19:40:00,25.3,16.6,29.91,SSE,157,0.0,6.0,69,0.00,,,0.00,Weather View 32 v70,2013-12-09 00:40:00,
2013-12-08 19:45:00,25.4,17.3,29.92,SSE,157,3.0,6.0,71,0.00,,,0.00,Weather View 32 v70,2013-12-09 00:45:00,
2013-12-08 19:50:00,25.4,16.3,29.92,SSE,157,2.0,6.0,68,0.00,,,0.00,Weather View 32 v70,2013-12-09 00:50:00,
2013-12-08 19:55:00,25.4,17.0,29.92,SSE,157,2.0,6.0,70,0.00,,,0.00,Weather View 32 v70,2013-12-09 00:55:00,
2013-12-08 20:00:00,25.6,16.2,29.91,SE,135,1.0,6.0,67,0.00,,,0.00,Weather View 32 v70,2013-12-09 01:00:00,
2013-12-08 20:05:00,25.5,16.1,29.90,SSE,157,0.0,6.0,67,0.00,,,0.00,Weather View 32 v70,2013-12-09 01:05:00,
2013-12-08 20:10:00,25.5,16.7,29.90,ESE,112,1.0,6.0,69,0.00,,,0.00,Weather View 32 v70,2013-12-09 01:10:00,
2013-12-08 20:15:00,25.6,16.2,29.90,SE,135,0.0,6.0,67,0.00,,,0.00,Weather View 32 v70,2013-12-09 01:15:00,
2013-12-08 20:20:00,25.6,16.2,29.90,ESE,112,0.0,6.0,67,0.00,,,0.00,Weather View 32 v70,2013-12-09 01:20:00,
2013-12-08 20:25:00,25.6,16.2,29.90,SE,135,0.0,6.0,67,0.00,,,0.00,Weather View 32 v70,2013-12-09 01:25:00,
2013-12-08 20:30:00,25.5,16.1,29.91,ESE,112,0.0,6.0,67,0.00,,,0.00,Weather View 32 v70,2013-12-09 01:30:00,
2013-12-08 20:35:00,25.6,16.2,29.90,ESE,112,0.0,6.0,67,0.00,,,0.00,Weather View 32 v70,2013-12-09 01:35:00,
2013-12-08 20:40:00,25.4,16.3,29.91,SSE,157,0.0,6.0,68,0.00,,,0.00,Weather View 32 v70,2013-12-09 01:40:00,
2013-12-08 20:45:00,25.4,16.3,29.90,South,180,0.0,6.0,68,0.00,,,0.00,Weather View 32 v70,2013-12-09 01:45:00,
2013-12-08 20:50:00,25.4,16.0,29.90,East,90,0.0,6.0,67,0.00,,,0.00,Weather View 32 v70,2013-12-09 01:50:00,
2013-12-08 20:55:00,25.4,16.3,29.90,East,90,0.0,6.0,68,0.00,,,0.00,Weather View 32 v70,2013-12-09 01:55:00,
2013-12-08 21:00:00,25.3,16.9,29.90,East,90,5.0,5.0,70,0.00,,,0.00,Weather View 32 v70,2013-12-09 02:00:00,
2013-12-08 21:05:00,25.2,17.4,29.90,East,90,2.0,6.0,72,0.00,,,0.00,Weather View 32 v70,2013-12-09 02:05:00,
2013-12-08 21:10:00,25.1,17.7,29.90,ESE,112,0.0,6.0,73,0.00,,,0.00,Weather View 32 v70,2013-12-09 02:10:00,
2013-12-08 21:15:00,25.0,17.9,29.91,ESE,112,0.0,6.0,74,0.00,,,0.00,Weather View 32 v70,2013-12-09 02:15:00,
2013-12-08 21:20:00,24.9,18.4,29.90,East,90,0.0,6.0,76,0.00,,,0.00,Weather View 32 v70,2013-12-09 02:20:00,
2013-12-08 21:25:00,24.9,18.7,29.90,ESE,112,0.0,6.0,77,0.00,,,0.00,Weather View 32 v70,2013-12-09 02:25:00,
2013-12-08 21:30:00,24.8,18.6,29.90,East,90,0.0,6.0,77,0.00,,,0.00,Weather View 32 v70,2013-12-09 02:30:00,
2013-12-08 21:36:00,24.9,18.1,29.90,ENE,67,0.0,6.0,75,0.00,,,0.00,Weather View 32 v70,2013-12-09 02:36:00,
2013-12-08 21:41:00,24.9,18.4,29.90,ENE,67,0.0,6.0,76,0.00,,,0.00,Weather View 32 v70,2013-12-09 02:41:00,
2013-12-08 21:46:00,25.0,17.9,29.89,East,90,0.0,6.0,74,0.00,,,0.00,Weather View 32 v70,2013-12-09 02:46:00,
2013-12-08 21:51:00,25.0,18.2,29.90,East,90,0.0,6.0,75,0.00,,,0.00,Weather View 32 v70,2013-12-09 02:51:00,
2013-12-08 21:56:00,25.0,18.5,29.89,East,90,0.0,6.0,76,0.00,,,0.00,Weather View 32 v70,2013-12-09 02:56:00,
2013-12-08 22:01:00,24.9,19.0,29.89,ENE,67,0.0,6.0,78,0.00,,,0.00,Weather View 32 v70,2013-12-09 03:01:00,
2013-12-08 22:06:00,24.8,19.5,29.90,ESE,112,0.0,6.0,80,0.00,,,0.00,Weather View 32 v70,2013-12-09 03:06:00,
2013-12-08 22:11:00,24.8,19.5,29.89,ENE,67,0.0,6.0,80,0.00,,,0.00,Weather View 32 v70,2013-12-09 03:11:00,
2013-12-08 22:16:00,24.8,19.5,29.89,NE,45,0.0,3.0,80,0.00,,,0.00,Weather View 32 v70,2013-12-09 03:16:00,
2013-12-08 22:21:00,24.8,19.8,29.88,North,360,0.0,3.0,81,0.00,,,0.00,Weather View 32 v70,2013-12-09 03:21:00,
2013-12-08 22:26:00,24.7,20.0,29.88,ENE,67,0.0,3.0,82,0.00,,,0.00,Weather View 32 v70,2013-12-09 03:26:00,
2013-12-08 22:31:00,24.6,20.2,29.89,ENE,67,0.0,3.0,83,0.00,,,0.00,Weather View 32 v70,2013-12-09 03:31:00,
2013-12-08 22:36:00,24.6,20.2,29.88,ENE,67,0.0,3.0,83,0.00,,,0.00,Weather View 32 v70,2013-12-09 03:36:00,
2013-12-08 22:41:00,24.6,20.2,29.88,East,90,1.0,3.0,83,0.00,,,0.00,Weather View 32 v70,2013-12-09 03:41:00,
2013-12-08 22:46:00,24.7,19.4,29.87,East,90,0.0,5.0,80,0.00,,,0.00,Weather View 32 v70,2013-12-09 03:46:00,
2013-12-08 22:51:00,24.8,19.5,29.87,East,90,0.0,5.0,80,0.00,,,0.00,Weather View 32 v70,2013-12-09 03:51:00,
2013-12-08 22:56:00,24.8,19.5,29.87,ENE,67,0.0,5.0,80,0.00,,,0.00,Weather View 32 v70,2013-12-09 03:56:00,
2013-12-08 23:01:00,24.8,20.1,29.87,East,90,0.0,5.0,82,0.00,,,0.00,Weather View 32 v70,2013-12-09 04:01:00,
2013-12-08 23:06:00,24.7,20.3,29.87,ESE,112,0.0,5.0,83,0.00,,,0.00,Weather View 32 v70,2013-12-09 04:06:00,
2013-12-08 23:11:00,24.6,20.2,29.86,ENE,67,2.0,5.0,83,0.00,,,0.00,Weather View 32 v70,2013-12-09 04:11:00,
2013-12-08 23:16:00,24.6,20.2,29.86,ESE,112,0.0,5.0,83,0.00,,,0.00,Weather View 32 v70,2013-12-09 04:16:00,
2013-12-08 23:21:00,24.7,19.7,29.86,East,90,0.0,5.0,81,0.01,,,0.00,Weather View 32 v70,2013-12-09 04:21:00,
2013-12-08 23:26:00,24.7,19.4,29.86,ESE,112,0.0,5.0,80,0.00,,,0.00,Weather View 32 v70,2013-12-09 04:26:00,
2013-12-08 23:31:00,24.8,19.5,29.86,ESE,112,0.0,5.0,80,0.00,,,0.00,Weather View 32 v70,2013-12-09 04:31:00,
2013-12-08 23:36:00,24.8,19.2,29.85,SSE,157,0.0,5.0,79,0.00,,,0.00,Weather View 32 v70,2013-12-09 04:36:00,
2013-12-08 23:41:00,24.9,19.3,29.85,North,360,0.0,5.0,79,0.00,,,0.00,Weather View 32 v70,2013-12-09 04:41:00,
2013-12-08 23:46:00,24.9,19.0,29.85,West,270,0.0,4.0,78,0.00,,,0.00,Weather View 32 v70,2013-12-09 04:46:00,
2013-12-08 23:51:00,25.0,18.8,29.85,NE,45,0.0,4.0,77,0.00,,,0.00,Weather View 32 v70,2013-12-09 04:51:00,
2013-12-08 23:56:00,25.1,18.3,29.85,ENE,67,0.0,4.0,75,0.00,,,0.00,Weather View 32 v70,2013-12-09 04:56:00,